Airfield :
LOGIN :

Register | Disclaimer

   EN    FR    IT 

 










Legend :    VFR   Marginal VFR   IFR   Intensive IFR   Very Intensive IFR
Visi :
Ceiling :
>= 8 km
>= 3000ft
5 to 8 km
1000 to 3000 ft
1500m to 5 km
500 to 1000 ft
800 to 1500m
200 to 500 ft
< 800m
< 200 ft
Symbols :   Thunderstorms  Fog  Heavy snow  Heavy precipitations  Wind > 20 kt
SIGMETs :     Misc.  Thunderstorms  Icing  Turbulence  Mountain Waves  Volcanic Ashes






- Airport Elevation : 50 ft
- IATA code : KOI


EGPA - Kirkwall

CURRENT METAR :
  • 070250Z AUTO 31011KT 9999 FEW028/// BKN033/// OVC042/// 09/07 Q1013

EXPIRED METARs :
  • 070220Z AUTO 30011KT 9999 BKN036/// OVC045/// 09/06 Q1013
  • 070150Z AUTO 31012KT 9999 SCT017/// SCT024/// BKN040/// 10/07 Q1013
  • 070120Z AUTO 29011KT 9999 BKN044/// 09/07 Q1013
  • 070050Z AUTO 30010KT 9999 SCT026/// BKN031/// 09/07 Q1013
  • 070020Z AUTO 31011KT 9999 FEW025/// 09/06 Q1013

TAF TAF EGPA
Valid from the 07 at 03:00 until the 07 at 12:00 UTC


070154Z 0703/0712 30010KT 9999 FEW025
PROB30
TEMPO 0703/0710 8000 -SHRA



MET'MAP, your aeronautical weather chart ! - Copyright ORBIFLY December 2007 - Disclaimer

ORBIFLY MET'MAP TEAM :

Programming & Development : Alexandra Zaïnal
Concept & original design : Baudouin d'Aumeries
Assistance for programming : Marc-Olivier Méhu
Technical & hardware support : Manuel Goepfert

Contact : metmap@orbifly.com




SOURCES & CREDITS :

   NOAA